sensor_id;sensor_type;location;lat;lon;timestamp;temperature;humidity
27797;DHT22;15177;50.844;4.412;2023-12-07T00:01:44;5.20;99.90
27797;DHT22;15177;50.844;4.412;2023-12-07T00:04:12;5.20;99.90
27797;DHT22;15177;50.844;4.412;2023-12-07T00:06:40;5.30;99.90
27797;DHT22;15177;50.844;4.412;2023-12-07T00:09:05;5.20;99.90
27797;DHT22;15177;50.844;4.412;2023-12-07T00:11:31;5.20;99.90
27797;DHT22;15177;50.844;4.412;2023-12-07T00:13:56;5.20;99.90
27797;DHT22;15177;50.844;4.412;2023-12-07T00:16:24;5.30;99.90
27797;DHT22;15177;50.844;4.412;2023-12-07T00:18:52;5.20;99.90
27797;DHT22;15177;50.844;4.412;2023-12-07T00:21:18;5.20;99.90
27797;DHT22;15177;50.844;4.412;2023-12-07T00:23:44;5.10;99.90
27797;DHT22;15177;50.844;4.412;2023-12-07T00:26:12;5.10;99.90
27797;DHT22;15177;50.844;4.412;2023-12-07T00:28:37;5.10;99.90
27797;DHT22;15177;50.844;4.412;2023-12-07T00:31:07;5.20;99.90
27797;DHT22;15177;50.844;4.412;2023-12-07T00:33:34;5.20;99.90
27797;DHT22;15177;50.844;4.412;2023-12-07T00:36:02;5.30;99.90
27797;DHT22;15177;50.844;4.412;2023-12-07T00:38:34;5.30;99.90
27797;DHT22;15177;50.844;4.412;2023-12-07T00:40:59;5.30;99.90
27797;DHT22;15177;50.844;4.412;2023-12-07T00:43:27;5.30;99.90
27797;DHT22;15177;50.844;4.412;2023-12-07T00:45:53;5.50;99.90
27797;DHT22;15177;50.844;4.412;2023-12-07T00:48:21;5.50;99.90
27797;DHT22;15177;50.844;4.412;2023-12-07T00:50:46;5.40;99.90
27797;DHT22;15177;50.844;4.412;2023-12-07T00:53:17;5.20;99.90
27797;DHT22;15177;50.844;4.412;2023-12-07T00:55:43;5.20;99.90
27797;DHT22;15177;50.844;4.412;2023-12-07T00:58:11;5.30;99.90
27797;DHT22;15177;50.844;4.412;2023-12-07T01:00:39;5.30;99.90
27797;DHT22;15177;50.844;4.412;2023-12-07T01:03:07;5.20;99.90
27797;DHT22;15177;50.844;4.412;2023-12-07T01:05:32;4.90;99.90
27797;DHT22;15177;50.844;4.412;2023-12-07T01:08:00;5.00;99.90
27797;DHT22;15177;50.844;4.412;2023-12-07T01:10:30;5.00;99.90
27797;DHT22;15177;50.844;4.412;2023-12-07T01:12:58;5.20;99.90
27797;DHT22;15177;50.844;4.412;2023-12-07T01:15:24;5.30;99.90
27797;DHT22;15177;50.844;4.412;2023-12-07T01:17:52;5.20;99.90
27797;DHT22;15177;50.844;4.412;2023-12-07T01:20:20;5.10;99.90
27797;DHT22;15177;50.844;4.412;2023-12-07T01:22:47;5.10;99.90
27797;DHT22;15177;50.844;4.412;2023-12-07T01:25:13;5.20;99.90
27797;DHT22;15177;50.844;4.412;2023-12-07T01:27:47;5.10;99.90
27797;DHT22;15177;50.844;4.412;2023-12-07T01:30:15;5.10;99.90
27797;DHT22;15177;50.844;4.412;2023-12-07T01:32:43;5.20;99.90
27797;DHT22;15177;50.844;4.412;2023-12-07T01:35:11;5.20;99.90
27797;DHT22;15177;50.844;4.412;2023-12-07T01:37:37;5.30;99.90
27797;DHT22;15177;50.844;4.412;2023-12-07T01:40:06;5.30;99.90
27797;DHT22;15177;50.844;4.412;2023-12-07T01:42:36;5.00;99.90
27797;DHT22;15177;50.844;4.412;2023-12-07T01:45:04;4.90;99.90
27797;DHT22;15177;50.844;4.412;2023-12-07T01:47:36;5.00;99.90
27797;DHT22;15177;50.844;4.412;2023-12-07T01:50:02;5.00;99.90
27797;DHT22;15177;50.844;4.412;2023-12-07T01:52:37;5.10;99.90
27797;DHT22;15177;50.844;4.412;2023-12-07T01:55:07;5.10;99.90
27797;DHT22;15177;50.844;4.412;2023-12-07T01:57:37;5.10;99.90
27797;DHT22;15177;50.844;4.412;2023-12-07T02:00:03;5.00;99.90
27797;DHT22;15177;50.844;4.412;2023-12-07T02:02:30;5.10;99.90
27797;DHT22;15177;50.844;4.412;2023-12-07T02:04:56;4.70;99.90
27797;DHT22;15177;50.844;4.412;2023-12-07T02:07:23;4.70;99.90
27797;DHT22;15177;50.844;4.412;2023-12-07T02:09:49;4.70;99.90
27797;DHT22;15177;50.844;4.412;2023-12-07T02:12:15;4.70;99.90
27797;DHT22;15177;50.844;4.412;2023-12-07T02:14:41;4.80;99.90
27797;DHT22;15177;50.844;4.412;2023-12-07T02:22:52;5.00;99.90
27797;DHT22;15177;50.844;4.412;2023-12-07T02:25:19;5.00;99.90
27797;DHT22;15177;50.844;4.412;2023-12-07T02:27:46;5.00;99.90
27797;DHT22;15177;50.844;4.412;2023-12-07T02:30:12;4.90;99.90
27797;DHT22;15177;50.844;4.412;2023-12-07T02:32:39;4.90;99.90
27797;DHT22;15177;50.844;4.412;2023-12-07T02:35:07;4.80;99.90
27797;DHT22;15177;50.844;4.412;2023-12-07T02:37:37;4.80;99.90
27797;DHT22;15177;50.844;4.412;2023-12-07T02:40:09;4.90;99.90
27797;DHT22;15177;50.844;4.412;2023-12-07T02:42:37;5.00;99.90
27797;DHT22;15177;50.844;4.412;2023-12-07T02:45:07;5.00;99.90
27797;DHT22;15177;50.844;4.412;2023-12-07T02:47:36;5.00;99.90
27797;DHT22;15177;50.844;4.412;2023-12-07T02:50:04;4.60;99.90
27797;DHT22;15177;50.844;4.412;2023-12-07T02:52:31;4.70;99.90
27797;DHT22;15177;50.844;4.412;2023-12-07T02:54:56;4.50;99.90
27797;DHT22;15177;50.844;4.412;2023-12-07T02:57:25;4.40;99.90
27797;DHT22;15177;50.844;4.412;2023-12-07T02:59:50;4.30;99.90
27797;DHT22;15177;50.844;4.412;2023-12-07T03:02:19;4.50;99.90
27797;DHT22;15177;50.844;4.412;2023-12-07T03:04:47;4.80;99.90
27797;DHT22;15177;50.844;4.412;2023-12-07T03:07:15;4.90;99.90
27797;DHT22;15177;50.844;4.412;2023-12-07T03:09:43;5.00;99.90
27797;DHT22;15177;50.844;4.412;2023-12-07T03:12:08;5.20;99.90
27797;DHT22;15177;50.844;4.412;2023-12-07T03:14:34;5.20;99.90
27797;DHT22;15177;50.844;4.412;2023-12-07T03:17:00;4.90;99.90
27797;DHT22;15177;50.844;4.412;2023-12-07T03:19:28;4.90;99.90
27797;DHT22;15177;50.844;4.412;2023-12-07T03:21:53;4.80;99.90
27797;DHT22;15177;50.844;4.412;2023-12-07T03:24:19;4.90;99.90
27797;DHT22;15177;50.844;4.412;2023-12-07T03:26:45;5.00;99.90
27797;DHT22;15177;50.844;4.412;2023-12-07T03:29:11;4.70;99.90
27797;DHT22;15177;50.844;4.412;2023-12-07T03:31:39;4.60;99.90
27797;DHT22;15177;50.844;4.412;2023-12-07T03:34:05;4.40;99.90
27797;DHT22;15177;50.844;4.412;2023-12-07T03:36:31;4.40;99.90
27797;DHT22;15177;50.844;4.412;2023-12-07T03:39:02;4.70;99.90
27797;DHT22;15177;50.844;4.412;2023-12-07T03:41:30;4.80;99.90
27797;DHT22;15177;50.844;4.412;2023-12-07T03:43:55;4.90;99.90
27797;DHT22;15177;50.844;4.412;2023-12-07T03:46:24;4.80;99.90
27797;DHT22;15177;50.844;4.412;2023-12-07T03:48:51;4.90;99.90
27797;DHT22;15177;50.844;4.412;2023-12-07T03:51:17;5.20;99.90
27797;DHT22;15177;50.844;4.412;2023-12-07T03:53:43;5.20;99.90
27797;DHT22;15177;50.844;4.412;2023-12-07T03:56:09;5.10;99.90
27797;DHT22;15177;50.844;4.412;2023-12-07T03:58:34;4.90;99.90
27797;DHT22;15177;50.844;4.412;2023-12-07T04:01:02;4.90;99.90
27797;DHT22;15177;50.844;4.412;2023-12-07T04:03:28;4.90;99.90
27797;DHT22;15177;50.844;4.412;2023-12-07T04:05:55;4.90;99.90
27797;DHT22;15177;50.844;4.412;2023-12-07T04:08:20;5.10;99.90
27797;DHT22;15177;50.844;4.412;2023-12-07T04:10:48;5.30;99.90
27797;DHT22;15177;50.844;4.412;2023-12-07T04:13:14;5.40;99.90
27797;DHT22;15177;50.844;4.412;2023-12-07T04:15:39;5.30;99.90
27797;DHT22;15177;50.844;4.412;2023-12-07T04:18:07;5.30;99.90
27797;DHT22;15177;50.844;4.412;2023-12-07T04:20:35;5.30;99.90
27797;DHT22;15177;50.844;4.412;2023-12-07T04:23:03;5.10;99.90
27797;DHT22;15177;50.844;4.412;2023-12-07T04:25:29;5.30;99.90
27797;DHT22;15177;50.844;4.412;2023-12-07T04:27:54;5.30;99.90
27797;DHT22;15177;50.844;4.412;2023-12-07T04:30:20;5.10;99.90
27797;DHT22;15177;50.844;4.412;2023-12-07T04:32:45;5.00;99.90
27797;DHT22;15177;50.844;4.412;2023-12-07T04:35:11;4.70;99.90
27797;DHT22;15177;50.844;4.412;2023-12-07T04:37:39;4.80;99.90
27797;DHT22;15177;50.844;4.412;2023-12-07T04:40:05;4.80;99.90
27797;DHT22;15177;50.844;4.412;2023-12-07T04:42:32;4.80;99.90
27797;DHT22;15177;50.844;4.412;2023-12-07T04:45:00;4.50;99.90
27797;DHT22;15177;50.844;4.412;2023-12-07T04:47:27;4.20;99.90
27797;DHT22;15177;50.844;4.412;2023-12-07T04:49:55;4.30;99.90
27797;DHT22;15177;50.844;4.412;2023-12-07T04:52:23;4.50;99.90
27797;DHT22;15177;50.844;4.412;2023-12-07T04:54:51;4.30;99.90
27797;DHT22;15177;50.844;4.412;2023-12-07T04:57:17;4.20;99.90
27797;DHT22;15177;50.844;4.412;2023-12-07T04:59:43;4.40;99.90
27797;DHT22;15177;50.844;4.412;2023-12-07T05:02:15;4.10;99.90
27797;DHT22;15177;50.844;4.412;2023-12-07T05:04:44;4.00;99.90
27797;DHT22;15177;50.844;4.412;2023-12-07T05:07:13;4.00;99.90
27797;DHT22;15177;50.844;4.412;2023-12-07T05:09:39;4.10;99.90
27797;DHT22;15177;50.844;4.412;2023-12-07T05:12:08;4.10;99.90
27797;DHT22;15177;50.844;4.412;2023-12-07T05:14:34;4.10;99.90
27797;DHT22;15177;50.844;4.412;2023-12-07T05:17:03;4.20;99.90
27797;DHT22;15177;50.844;4.412;2023-12-07T05:19:28;4.10;99.90
27797;DHT22;15177;50.844;4.412;2023-12-07T05:21:54;4.00;99.90
27797;DHT22;15177;50.844;4.412;2023-12-07T05:24:20;4.00;99.90
27797;DHT22;15177;50.844;4.412;2023-12-07T05:26:46;4.00;99.90
27797;DHT22;15177;50.844;4.412;2023-12-07T05:29:12;3.90;99.90
27797;DHT22;15177;50.844;4.412;2023-12-07T05:31:39;4.00;99.90
27797;DHT22;15177;50.844;4.412;2023-12-07T05:34:05;4.00;99.90
27797;DHT22;15177;50.844;4.412;2023-12-07T05:36:31;4.10;99.90
27797;DHT22;15177;50.844;4.412;2023-12-07T05:39:00;4.30;99.90
27797;DHT22;15177;50.844;4.412;2023-12-07T05:41:28;4.30;99.90
27797;DHT22;15177;50.844;4.412;2023-12-07T05:43:54;4.50;99.90
27797;DHT22;15177;50.844;4.412;2023-12-07T05:46:20;4.30;99.90
27797;DHT22;15177;50.844;4.412;2023-12-07T05:48:46;4.50;99.90
27797;DHT22;15177;50.844;4.412;2023-12-07T05:51:17;4.70;99.90
27797;DHT22;15177;50.844;4.412;2023-12-07T05:53:43;4.70;99.90
27797;DHT22;15177;50.844;4.412;2023-12-07T05:56:11;4.20;99.90
27797;DHT22;15177;50.844;4.412;2023-12-07T05:58:37;4.20;99.90
27797;DHT22;15177;50.844;4.412;2023-12-07T06:01:03;4.20;99.90
27797;DHT22;15177;50.844;4.412;2023-12-07T06:03:29;4.20;99.90
27797;DHT22;15177;50.844;4.412;2023-12-07T06:05:55;4.00;99.90
27797;DHT22;15177;50.844;4.412;2023-12-07T06:08:23;4.00;99.90
27797;DHT22;15177;50.844;4.412;2023-12-07T06:10:51;3.90;99.90
27797;DHT22;15177;50.844;4.412;2023-12-07T06:13:19;3.90;99.90
27797;DHT22;15177;50.844;4.412;2023-12-07T06:15:45;4.00;99.90
27797;DHT22;15177;50.844;4.412;2023-12-07T06:18:11;4.10;99.90
27797;DHT22;15177;50.844;4.412;2023-12-07T06:20:36;4.10;99.90
27797;DHT22;15177;50.844;4.412;2023-12-07T06:23:02;4.00;99.90
27797;DHT22;15177;50.844;4.412;2023-12-07T06:25:28;3.80;99.90
27797;DHT22;15177;50.844;4.412;2023-12-07T06:27:53;3.80;99.90
27797;DHT22;15177;50.844;4.412;2023-12-07T06:30:19;3.70;99.90
27797;DHT22;15177;50.844;4.412;2023-12-07T06:32:44;3.80;99.90
27797;DHT22;15177;50.844;4.412;2023-12-07T06:35:13;3.70;99.90
27797;DHT22;15177;50.844;4.412;2023-12-07T06:37:39;3.90;99.90
27797;DHT22;15177;50.844;4.412;2023-12-07T06:40:08;3.90;99.90
27797;DHT22;15177;50.844;4.412;2023-12-07T06:42:35;3.90;99.90
27797;DHT22;15177;50.844;4.412;2023-12-07T06:45:01;3.80;99.90
27797;DHT22;15177;50.844;4.412;2023-12-07T06:47:34;3.70;99.90
27797;DHT22;15177;50.844;4.412;2023-12-07T06:50:00;3.80;99.90
27797;DHT22;15177;50.844;4.412;2023-12-07T06:52:28;3.80;99.90
27797;DHT22;15177;50.844;4.412;2023-12-07T06:54:53;3.70;99.90
27797;DHT22;15177;50.844;4.412;2023-12-07T06:57:20;3.80;99.90
27797;DHT22;15177;50.844;4.412;2023-12-07T06:59:45;3.80;99.90
27797;DHT22;15177;50.844;4.412;2023-12-07T07:02:12;3.80;99.90
27797;DHT22;15177;50.844;4.412;2023-12-07T07:04:38;3.70;99.90
27797;DHT22;15177;50.844;4.412;2023-12-07T07:07:06;3.70;99.90
27797;DHT22;15177;50.844;4.412;2023-12-07T07:09:36;3.70;99.90
27797;DHT22;15177;50.844;4.412;2023-12-07T07:12:02;3.60;99.90
27797;DHT22;15177;50.844;4.412;2023-12-07T07:14:28;3.70;99.90
27797;DHT22;15177;50.844;4.412;2023-12-07T07:16:53;3.60;99.90
27797;DHT22;15177;50.844;4.412;2023-12-07T07:19:19;3.60;99.90
27797;DHT22;15177;50.844;4.412;2023-12-07T07:21:47;3.60;99.90
27797;DHT22;15177;50.844;4.412;2023-12-07T07:24:14;3.70;99.90
27797;DHT22;15177;50.844;4.412;2023-12-07T07:26:41;3.70;99.90
27797;DHT22;15177;50.844;4.412;2023-12-07T07:29:07;3.70;99.90
27797;DHT22;15177;50.844;4.412;2023-12-07T07:31:33;3.60;99.90
27797;DHT22;15177;50.844;4.412;2023-12-07T07:34:00;3.70;99.90
27797;DHT22;15177;50.844;4.412;2023-12-07T07:36:29;3.70;99.90
27797;DHT22;15177;50.844;4.412;2023-12-07T07:41:45;3.80;99.90
27797;DHT22;15177;50.844;4.412;2023-12-07T07:44:11;4.00;99.90
27797;DHT22;15177;50.844;4.412;2023-12-07T07:46:42;4.00;99.90
27797;DHT22;15177;50.844;4.412;2023-12-07T07:49:14;4.20;99.90
27797;DHT22;15177;50.844;4.412;2023-12-07T07:51:40;4.10;99.90
27797;DHT22;15177;50.844;4.412;2023-12-07T07:54:07;4.00;99.90
27797;DHT22;15177;50.844;4.412;2023-12-07T07:56:33;3.80;99.90
27797;DHT22;15177;50.844;4.412;2023-12-07T07:58:59;3.80;99.90
27797;DHT22;15177;50.844;4.412;2023-12-07T08:01:26;3.80;99.90
27797;DHT22;15177;50.844;4.412;2023-12-07T08:03:52;3.80;99.90
27797;DHT22;15177;50.844;4.412;2023-12-07T08:06:21;3.60;99.90
27797;DHT22;15177;50.844;4.412;2023-12-07T08:08:48;3.70;99.90
27797;DHT22;15177;50.844;4.412;2023-12-07T08:11:16;3.70;99.90
27797;DHT22;15177;50.844;4.412;2023-12-07T08:13:45;3.60;99.90
27797;DHT22;15177;50.844;4.412;2023-12-07T08:16:11;3.70;99.90
27797;DHT22;15177;50.844;4.412;2023-12-07T08:18:37;3.70;99.90
27797;DHT22;15177;50.844;4.412;2023-12-07T08:21:03;3.90;99.90
27797;DHT22;15177;50.844;4.412;2023-12-07T08:23:29;3.80;99.90
27797;DHT22;15177;50.844;4.412;2023-12-07T08:25:56;3.90;99.90
27797;DHT22;15177;50.844;4.412;2023-12-07T08:28:26;3.90;99.90
27797;DHT22;15177;50.844;4.412;2023-12-07T08:31:03;3.90;99.90
27797;DHT22;15177;50.844;4.412;2023-12-07T08:33:28;4.10;99.90
27797;DHT22;15177;50.844;4.412;2023-12-07T08:35:55;4.00;99.90
27797;DHT22;15177;50.844;4.412;2023-12-07T08:38:25;4.20;99.90
27797;DHT22;15177;50.844;4.412;2023-12-07T08:40:54;4.30;99.90
27797;DHT22;15177;50.844;4.412;2023-12-07T08:43:24;4.40;99.90
27797;DHT22;15177;50.844;4.412;2023-12-07T08:45:51;4.50;99.90
27797;DHT22;15177;50.844;4.412;2023-12-07T08:48:18;4.70;99.90
27797;DHT22;15177;50.844;4.412;2023-12-07T08:50:44;5.00;99.90
27797;DHT22;15177;50.844;4.412;2023-12-07T08:53:10;4.90;99.90
27797;DHT22;15177;50.844;4.412;2023-12-07T08:55:37;5.20;99.90
27797;DHT22;15177;50.844;4.412;2023-12-07T08:58:05;5.00;99.90
27797;DHT22;15177;50.844;4.412;2023-12-07T09:00:38;4.70;99.90
27797;DHT22;15177;50.844;4.412;2023-12-07T09:03:04;4.60;99.90
27797;DHT22;15177;50.844;4.412;2023-12-07T09:05:33;4.60;99.90
27797;DHT22;15177;50.844;4.412;2023-12-07T09:08:00;4.50;99.90
27797;DHT22;15177;50.844;4.412;2023-12-07T09:10:25;4.60;99.90
27797;DHT22;15177;50.844;4.412;2023-12-07T09:12:51;4.60;99.90
27797;DHT22;15177;50.844;4.412;2023-12-07T09:15:19;4.60;99.90
27797;DHT22;15177;50.844;4.412;2023-12-07T09:17:45;4.80;99.90
27797;DHT22;15177;50.844;4.412;2023-12-07T09:20:11;4.80;99.90
27797;DHT22;15177;50.844;4.412;2023-12-07T09:22:43;4.70;99.90
27797;DHT22;15177;50.844;4.412;2023-12-07T09:25:10;4.90;99.90
27797;DHT22;15177;50.844;4.412;2023-12-07T09:27:40;4.80;99.90
27797;DHT22;15177;50.844;4.412;2023-12-07T09:30:09;4.90;99.90
27797;DHT22;15177;50.844;4.412;2023-12-07T09:32:50;5.30;99.90
27797;DHT22;15177;50.844;4.412;2023-12-07T09:35:15;5.30;99.90
27797;DHT22;15177;50.844;4.412;2023-12-07T09:37:45;5.10;99.90
27797;DHT22;15177;50.844;4.412;2023-12-07T09:42:48;5.50;99.90
27797;DHT22;15177;50.844;4.412;2023-12-07T09:45:15;5.20;99.90
27797;DHT22;15177;50.844;4.412;2023-12-07T09:47:42;5.40;99.90
27797;DHT22;15177;50.844;4.412;2023-12-07T09:50:12;5.60;99.90
27797;DHT22;15177;50.844;4.412;2023-12-07T09:52:39;5.60;99.90
27797;DHT22;15177;50.844;4.412;2023-12-07T09:55:06;5.50;99.90
27797;DHT22;15177;50.844;4.412;2023-12-07T09:57:36;5.60;99.90
27797;DHT22;15177;50.844;4.412;2023-12-07T10:00:05;5.90;99.90
27797;DHT22;15177;50.844;4.412;2023-12-07T10:02:36;5.70;99.90
27797;DHT22;15177;50.844;4.412;2023-12-07T10:05:10;5.90;99.90
27797;DHT22;15177;50.844;4.412;2023-12-07T10:07:42;6.20;99.90
27797;DHT22;15177;50.844;4.412;2023-12-07T10:10:09;6.00;99.90
27797;DHT22;15177;50.844;4.412;2023-12-07T10:12:46;5.90;99.90
27797;DHT22;15177;50.844;4.412;2023-12-07T10:15:13;5.80;99.90
27797;DHT22;15177;50.844;4.412;2023-12-07T10:17:45;5.70;99.90
27797;DHT22;15177;50.844;4.412;2023-12-07T10:20:21;5.50;99.90
27797;DHT22;15177;50.844;4.412;2023-12-07T10:23:06;5.60;99.90
27797;DHT22;15177;50.844;4.412;2023-12-07T10:28:03;6.20;99.90
27797;DHT22;15177;50.844;4.412;2023-12-07T10:30:32;6.20;99.90
27797;DHT22;15177;50.844;4.412;2023-12-07T10:32:58;6.00;99.90
27797;DHT22;15177;50.844;4.412;2023-12-07T10:35:24;5.90;99.90
27797;DHT22;15177;50.844;4.412;2023-12-07T10:37:51;6.10;99.90
27797;DHT22;15177;50.844;4.412;2023-12-07T10:40:19;6.50;99.90
27797;DHT22;15177;50.844;4.412;2023-12-07T10:42:48;6.10;99.90
27797;DHT22;15177;50.844;4.412;2023-12-07T10:45:17;5.90;99.90
27797;DHT22;15177;50.844;4.412;2023-12-07T10:47:46;6.00;99.90
27797;DHT22;15177;50.844;4.412;2023-12-07T10:50:14;5.80;99.90
27797;DHT22;15177;50.844;4.412;2023-12-07T10:52:52;5.80;99.90
27797;DHT22;15177;50.844;4.412;2023-12-07T10:55:22;5.70;99.90
27797;DHT22;15177;50.844;4.412;2023-12-07T10:57:57;5.60;99.90
27797;DHT22;15177;50.844;4.412;2023-12-07T11:00:28;5.60;99.90
27797;DHT22;15177;50.844;4.412;2023-12-07T11:02:54;5.70;99.90
27797;DHT22;15177;50.844;4.412;2023-12-07T11:05:23;5.70;99.90
27797;DHT22;15177;50.844;4.412;2023-12-07T11:08:05;5.70;99.90
27797;DHT22;15177;50.844;4.412;2023-12-07T11:10:50;5.90;99.90
27797;DHT22;15177;50.844;4.412;2023-12-07T11:13:23;6.00;99.90
27797;DHT22;15177;50.844;4.412;2023-12-07T11:15:50;6.20;99.90
27797;DHT22;15177;50.844;4.412;2023-12-07T11:18:15;6.30;99.90
27797;DHT22;15177;50.844;4.412;2023-12-07T11:20:44;6.10;99.90
27797;DHT22;15177;50.844;4.412;2023-12-07T11:23:17;6.00;99.90
27797;DHT22;15177;50.844;4.412;2023-12-07T11:25:44;6.30;99.90
27797;DHT22;15177;50.844;4.412;2023-12-07T11:28:12;6.20;99.90
27797;DHT22;15177;50.844;4.412;2023-12-07T11:30:38;6.30;99.90
27797;DHT22;15177;50.844;4.412;2023-12-07T11:33:06;6.50;99.90
27797;DHT22;15177;50.844;4.412;2023-12-07T11:36:05;6.70;99.90
27797;DHT22;15177;50.844;4.412;2023-12-07T11:38:39;6.30;99.90
27797;DHT22;15177;50.844;4.412;2023-12-07T11:41:21;6.10;99.90
27797;DHT22;15177;50.844;4.412;2023-12-07T11:43:47;6.30;99.90
27797;DHT22;15177;50.844;4.412;2023-12-07T11:46:14;6.50;99.90
27797;DHT22;15177;50.844;4.412;2023-12-07T11:48:46;6.40;99.90
27797;DHT22;15177;50.844;4.412;2023-12-07T11:51:13;6.30;99.90
27797;DHT22;15177;50.844;4.412;2023-12-07T11:53:38;6.40;99.90
27797;DHT22;15177;50.844;4.412;2023-12-07T11:56:10;6.50;99.90
27797;DHT22;15177;50.844;4.412;2023-12-07T11:58:38;6.40;99.90
27797;DHT22;15177;50.844;4.412;2023-12-07T12:01:04;6.40;99.90
27797;DHT22;15177;50.844;4.412;2023-12-07T12:03:31;6.70;99.90
27797;DHT22;15177;50.844;4.412;2023-12-07T12:06:01;6.60;99.90
27797;DHT22;15177;50.844;4.412;2023-12-07T12:08:28;6.50;99.90
27797;DHT22;15177;50.844;4.412;2023-12-07T12:10:57;6.70;99.90
27797;DHT22;15177;50.844;4.412;2023-12-07T12:13:32;6.70;99.90
27797;DHT22;15177;50.844;4.412;2023-12-07T12:15:59;6.60;99.90
27797;DHT22;15177;50.844;4.412;2023-12-07T12:18:26;6.60;99.90
27797;DHT22;15177;50.844;4.412;2023-12-07T12:20:53;6.50;99.90
27797;DHT22;15177;50.844;4.412;2023-12-07T12:23:23;6.40;99.90
27797;DHT22;15177;50.844;4.412;2023-12-07T12:25:49;6.30;99.90
27797;DHT22;15177;50.844;4.412;2023-12-07T12:28:16;6.20;99.90
27797;DHT22;15177;50.844;4.412;2023-12-07T12:30:44;6.20;99.90
27797;DHT22;15177;50.844;4.412;2023-12-07T12:33:10;6.20;99.90
27797;DHT22;15177;50.844;4.412;2023-12-07T12:35:41;6.20;99.90
27797;DHT22;15177;50.844;4.412;2023-12-07T12:38:13;6.10;99.90
27797;DHT22;15177;50.844;4.412;2023-12-07T12:40:39;6.20;99.90
27797;DHT22;15177;50.844;4.412;2023-12-07T12:43:07;6.20;99.90
27797;DHT22;15177;50.844;4.412;2023-12-07T12:45:33;6.20;99.90
27797;DHT22;15177;50.844;4.412;2023-12-07T12:47:59;6.50;99.90
27797;DHT22;15177;50.844;4.412;2023-12-07T12:50:38;6.40;99.90
27797;DHT22;15177;50.844;4.412;2023-12-07T12:53:06;6.40;99.90
27797;DHT22;15177;50.844;4.412;2023-12-07T12:55:41;6.30;99.90
27797;DHT22;15177;50.844;4.412;2023-12-07T12:58:14;6.20;99.90
27797;DHT22;15177;50.844;4.412;2023-12-07T13:00:48;6.30;99.90
27797;DHT22;15177;50.844;4.412;2023-12-07T13:03:14;6.20;99.90
27797;DHT22;15177;50.844;4.412;2023-12-07T13:05:40;6.50;99.90
27797;DHT22;15177;50.844;4.412;2023-12-07T13:08:08;6.50;99.90
27797;DHT22;15177;50.844;4.412;2023-12-07T13:10:36;6.70;99.90
27797;DHT22;15177;50.844;4.412;2023-12-07T13:13:02;6.50;99.90
27797;DHT22;15177;50.844;4.412;2023-12-07T13:15:32;6.40;99.90
27797;DHT22;15177;50.844;4.412;2023-12-07T13:17:58;6.20;99.90
27797;DHT22;15177;50.844;4.412;2023-12-07T13:20:26;6.30;99.90
27797;DHT22;15177;50.844;4.412;2023-12-07T13:22:52;6.50;99.90
27797;DHT22;15177;50.844;4.412;2023-12-07T13:25:17;6.40;99.90
27797;DHT22;15177;50.844;4.412;2023-12-07T13:27:48;6.50;99.90
27797;DHT22;15177;50.844;4.412;2023-12-07T13:30:16;6.60;99.90
27797;DHT22;15177;50.844;4.412;2023-12-07T13:32:44;6.30;99.90
27797;DHT22;15177;50.844;4.412;2023-12-07T13:35:10;6.20;99.90
27797;DHT22;15177;50.844;4.412;2023-12-07T13:37:36;6.30;99.90
27797;DHT22;15177;50.844;4.412;2023-12-07T13:40:05;6.30;99.90
27797;DHT22;15177;50.844;4.412;2023-12-07T13:42:38;6.10;99.90
27797;DHT22;15177;50.844;4.412;2023-12-07T13:45:09;6.10;99.90
27797;DHT22;15177;50.844;4.412;2023-12-07T13:47:35;6.10;99.90
27797;DHT22;15177;50.844;4.412;2023-12-07T13:50:03;6.20;99.90
27797;DHT22;15177;50.844;4.412;2023-12-07T13:52:30;6.30;99.90
27797;DHT22;15177;50.844;4.412;2023-12-07T13:55:01;6.20;99.90
27797;DHT22;15177;50.844;4.412;2023-12-07T13:57:27;6.10;99.90
27797;DHT22;15177;50.844;4.412;2023-12-07T13:59:54;6.20;99.90
27797;DHT22;15177;50.844;4.412;2023-12-07T14:02:23;6.10;99.90
27797;DHT22;15177;50.844;4.412;2023-12-07T14:04:49;6.10;99.90
27797;DHT22;15177;50.844;4.412;2023-12-07T14:07:17;6.10;99.90
27797;DHT22;15177;50.844;4.412;2023-12-07T14:09:45;6.20;99.90
27797;DHT22;15177;50.844;4.412;2023-12-07T14:12:12;5.90;99.90
27797;DHT22;15177;50.844;4.412;2023-12-07T14:14:48;6.00;99.90
27797;DHT22;15177;50.844;4.412;2023-12-07T14:17:14;5.90;99.90
27797;DHT22;15177;50.844;4.412;2023-12-07T14:19:41;5.90;99.90
27797;DHT22;15177;50.844;4.412;2023-12-07T14:22:07;5.90;99.90
27797;DHT22;15177;50.844;4.412;2023-12-07T14:24:38;5.90;99.90
27797;DHT22;15177;50.844;4.412;2023-12-07T14:27:05;5.90;99.90
27797;DHT22;15177;50.844;4.412;2023-12-07T14:29:34;5.90;99.90
27797;DHT22;15177;50.844;4.412;2023-12-07T14:32:00;5.90;99.90
27797;DHT22;15177;50.844;4.412;2023-12-07T14:34:26;5.90;99.90
27797;DHT22;15177;50.844;4.412;2023-12-07T14:36:55;5.90;99.90
27797;DHT22;15177;50.844;4.412;2023-12-07T14:39:21;6.20;99.90
27797;DHT22;15177;50.844;4.412;2023-12-07T14:41:48;6.10;99.90
27797;DHT22;15177;50.844;4.412;2023-12-07T14:44:17;5.90;99.90
27797;DHT22;15177;50.844;4.412;2023-12-07T14:46:49;5.90;99.90
27797;DHT22;15177;50.844;4.412;2023-12-07T14:49:20;5.90;99.90
27797;DHT22;15177;50.844;4.412;2023-12-07T14:51:49;6.00;99.90
27797;DHT22;15177;50.844;4.412;2023-12-07T14:54:16;5.90;99.90
27797;DHT22;15177;50.844;4.412;2023-12-07T14:56:44;5.80;99.90
27797;DHT22;15177;50.844;4.412;2023-12-07T14:59:10;5.80;99.90
27797;DHT22;15177;50.844;4.412;2023-12-07T15:01:44;5.90;99.90
27797;DHT22;15177;50.844;4.412;2023-12-07T15:04:12;5.90;99.90
27797;DHT22;15177;50.844;4.412;2023-12-07T15:06:37;5.90;99.90
27797;DHT22;15177;50.844;4.412;2023-12-07T15:09:03;5.90;99.90
27797;DHT22;15177;50.844;4.412;2023-12-07T15:11:33;5.90;99.90
27797;DHT22;15177;50.844;4.412;2023-12-07T15:14:02;5.90;99.90
27797;DHT22;15177;50.844;4.412;2023-12-07T15:16:28;5.90;99.90
27797;DHT22;15177;50.844;4.412;2023-12-07T15:18:59;5.90;99.90
27797;DHT22;15177;50.844;4.412;2023-12-07T15:21:29;5.90;99.90
27797;DHT22;15177;50.844;4.412;2023-12-07T15:24:00;5.80;99.90
27797;DHT22;15177;50.844;4.412;2023-12-07T15:26:26;5.80;99.90
27797;DHT22;15177;50.844;4.412;2023-12-07T15:28:52;5.70;99.90
27797;DHT22;15177;50.844;4.412;2023-12-07T15:31:18;5.80;99.90
27797;DHT22;15177;50.844;4.412;2023-12-07T15:33:46;5.80;99.90
27797;DHT22;15177;50.844;4.412;2023-12-07T15:36:12;5.70;99.90
27797;DHT22;15177;50.844;4.412;2023-12-07T15:38:41;5.70;99.90
27797;DHT22;15177;50.844;4.412;2023-12-07T15:41:08;5.60;99.90
27797;DHT22;15177;50.844;4.412;2023-12-07T15:43:34;5.60;99.90
27797;DHT22;15177;50.844;4.412;2023-12-07T15:45:59;5.50;99.90
27797;DHT22;15177;50.844;4.412;2023-12-07T15:48:25;5.40;99.90
27797;DHT22;15177;50.844;4.412;2023-12-07T15:50:53;5.40;99.90
27797;DHT22;15177;50.844;4.412;2023-12-07T15:53:19;5.50;99.90
27797;DHT22;15177;50.844;4.412;2023-12-07T15:55:45;5.50;99.90
27797;DHT22;15177;50.844;4.412;2023-12-07T15:58:13;5.50;99.90
27797;DHT22;15177;50.844;4.412;2023-12-07T16:00:43;5.50;99.90
27797;DHT22;15177;50.844;4.412;2023-12-07T16:03:08;5.40;99.90